Time;durP1;ratioP1;P1;durP2;ratioP2;P2;SDS_P1;SDS_P2;PMS_P1;PMS_P2;Temp;Humidity;BMP_temperature;BMP_pressure;BME280_temperature;BME280_humidity;BME280_pressure;Samples;Min_cycle;Max_cycle;Signal;HPM_P1;HPM_P2
2024/01/07 00:01:34;;;;;;;16.05;10.57;;;;;;;9.61;60.30;96131.19;10367178;28;20068;-49
2024/01/07 00:06:33;;;;;;;14.52;7.93;;;;;;;9.54;59.41;96099.41;10362890;28;20033;-49
2024/01/07 00:11:32;;;;;;;11.55;8.63;;;;;;;9.72;58.98;96107.63;10365221;28;20435;-48
2024/01/07 00:16:31;;;;;;;11.65;7.75;;;;;;;9.74;59.31;96127.41;10366471;28;20410;-49
2024/01/07 00:21:31;;;;;;;11.15;6.50;;;;;;;9.71;59.35;96098.16;10365757;28;20869;-49
2024/01/07 00:26:29;;;;;;;;;;;;;;;9.73;59.51;96097.22;10365398;28;20064;-49
2024/01/07 00:31:29;;;;;;;14.02;9.32;;;;;;;9.72;59.62;96087.78;10364661;28;19978;-49
2024/01/07 00:36:28;;;;;;;15.13;11.90;;;;;;;9.31;60.13;96034.38;10366345;28;20148;-50
2024/01/07 00:41:27;;;;;;;17.42;11.95;;;;;;;9.59;59.69;96085.50;10363494;28;20069;-49
2024/01/07 00:46:26;;;;;;;15.15;9.85;;;;;;;9.19;60.45;96035.47;10365123;28;20040;-49
2024/01/07 00:51:25;;;;;;;17.13;11.73;;;;;;;8.16;60.72;95861.97;10365467;28;20056;-48
2024/01/07 00:56:27;;;;;;;16.58;12.07;;;;;;;9.32;61.57;96061.94;10363079;28;20029;-49
2024/01/07 01:01:25;;;;;;;24.73;16.13;;;;;;;9.08;61.84;96052.97;10365190;28;20132;-49
2024/01/07 01:06:24;;;;;;;21.17;12.68;;;;;;;8.90;63.40;96052.53;10364901;28;20043;-48
2024/01/07 01:11:23;;;;;;;20.30;14.45;;;;;;;8.47;64.50;95978.44;10364671;28;20045;-49
2024/01/07 01:16:23;;;;;;;22.38;16.10;;;;;;;8.41;63.91;95952.72;10363989;28;20040;-49
2024/01/07 01:21:22;;;;;;;23.42;14.85;;;;;;;8.76;64.04;96015.72;10361984;28;20127;-48
2024/01/07 01:26:21;;;;;;;15.88;10.40;;;;;;;8.42;66.79;95990.59;10361416;28;20043;-51
2024/01/07 01:31:20;;;;;;;17.75;11.65;;;;;;;8.57;65.04;95973.91;10360001;28;20032;-48
2024/01/07 01:36:19;;;;;;;21.27;13.35;;;;;;;8.68;65.06;95977.13;10360387;28;20040;-48
2024/01/07 01:41:18;;;;;;;19.50;13.25;;;;;;;8.27;65.42;95921.13;10359340;28;20148;-49
2024/01/07 01:46:17;;;;;;;19.42;12.18;;;;;;;8.30;66.08;95931.44;10362614;28;20047;-49
2024/01/07 01:51:18;;;;;;;54.10;29.95;;;;;;;8.33;66.51;95949.44;10362609;28;20131;-50
2024/01/07 01:56:20;;;;;;;26.05;15.60;;;;;;;8.48;65.76;95950.84;10360554;28;20064;-50
2024/01/07 02:01:19;;;;;;;18.60;10.63;;;;;;;8.50;66.04;95930.97;10363627;28;20072;-51
2024/01/07 02:06:20;;;;;;;15.88;8.45;;;;;;;8.42;65.96;95938.91;10360430;28;20445;-50
2024/01/07 02:11:20;;;;;;;14.07;8.93;;;;;;;8.44;65.74;95925.97;10362589;28;20493;-49
2024/01/07 02:16:19;;;;;;;19.27;10.27;;;;;;;8.45;66.43;95915.56;10362486;28;20064;-51
2024/01/07 02:21:18;;;;;;;15.05;10.45;;;;;;;8.37;66.68;95894.22;10359216;28;20679;-49
2024/01/07 02:26:18;;;;;;;13.00;8.00;;;;;;;8.26;66.81;95875.53;10362242;28;20503;-51
2024/01/07 02:31:17;;;;;;;17.33;11.02;;;;;;;8.05;67.51;95838.09;10358141;28;20119;-49
2024/01/07 02:36:16;;;;;;;32.50;19.27;;;;;;;7.84;69.48;95831.66;10362883;28;20017;-48
2024/01/07 02:41:15;;;;;;;29.02;16.67;;;;;;;7.85;69.11;95836.81;10360583;28;20053;-49
2024/01/07 02:46:14;;;;;;;31.67;18.90;;;;;;;8.09;68.21;95868.16;10362051;28;20116;-50
2024/01/07 02:51:13;;;;;;;32.05;17.98;;;;;;;7.76;67.79;95803.44;10370306;28;20120;-49
2024/01/07 02:56:12;;;;;;;35.45;23.73;;;;;;;7.90;67.67;95828.06;10369579;28;20044;-50
2024/01/07 03:01:11;;;;;;;25.05;17.15;;;;;;;8.07;68.34;95859.56;10369802;28;20039;-51
2024/01/07 03:06:10;;;;;;;16.83;10.30;;;;;;;8.03;68.96;95868.25;10368451;28;20036;-50
2024/01/07 03:11:09;;;;;;;16.58;10.20;;;;;;;8.09;69.05;95862.97;10370910;28;20121;-49
2024/01/07 03:16:08;;;;;;;12.10;7.43;;;;;;;7.96;69.42;95825.38;10370097;28;20028;-48
2024/01/07 03:21:16;;;;;;;15.65;10.45;;;;;;;8.06;69.40;95838.06;10369275;28;20039;-49
2024/01/07 03:26:17;;;;;;;9.98;6.30;;;;;;;8.16;69.03;95827.53;10369372;28;20124;-49
2024/01/07 03:31:18;;;;;;;9.75;6.88;;;;;;;8.42;68.45;95825.19;10367408;28;20063;-50
2024/01/07 03:36:17;;;;;;;12.00;6.35;;;;;;;8.10;67.45;95756.16;10369601;28;20459;-49
2024/01/07 03:41:20;;;;;;;13.98;7.82;;;;;;;7.75;66.94;95674.34;10368457;28;20505;-49
2024/01/07 03:46:19;;;;;;;12.05;6.63;;;;;;;8.62;66.79;95808.34;10368081;28;20060;-52
2024/01/07 03:51:18;;;;;;;23.02;16.80;;;;;;;8.63;67.37;95815.22;10367907;28;20036;-47
2024/01/07 03:56:16;;;;;;;16.27;11.85;;;;;;;8.69;67.20;95846.09;10368473;28;20044;-48
2024/01/07 04:01:17;;;;;;;29.30;18.48;;;;;;;8.69;67.36;95810.75;10366257;28;20051;-47
2024/01/07 04:06:16;;;;;;;22.02;14.95;;;;;;;8.25;67.21;95737.72;10367731;28;20076;-48
2024/01/07 04:11:15;;;;;;;18.08;11.48;;;;;;;8.78;68.62;95807.06;10367531;28;20033;-49
2024/01/07 04:16:18;;;;;;;12.32;8.15;;;;;;;8.81;67.82;95773.41;10367288;28;20100;-47
2024/01/07 04:21:17;;;;;;;12.35;8.30;;;;;;;8.65;68.09;95748.81;10366378;28;20068;-47
2024/01/07 04:26:16;;;;;;;13.75;8.60;;;;;;;8.84;68.81;95795.75;10367265;28;20021;-48
2024/01/07 04:31:15;;;;;;;17.25;13.25;;;;;;;8.75;70.29;95808.91;10366202;28;20057;-47
2024/01/07 04:36:14;;;;;;;16.52;12.45;;;;;;;8.43;69.16;95745.91;10366599;28;20029;-50
2024/01/07 04:41:13;;;;;;;18.85;13.13;;;;;;;8.43;70.12;95759.66;10366504;28;20155;-47
2024/01/07 04:46:12;;;;;;;27.85;18.60;;;;;;;8.20;70.04;95733.53;10365866;28;20037;-49
2024/01/07 04:51:11;;;;;;;21.20;15.25;;;;;;;8.47;70.53;95778.56;10363769;28;20061;-48
2024/01/07 04:56:10;;;;;;;20.40;13.73;;;;;;;8.46;70.70;95763.94;10366044;28;20124;-48
2024/01/07 05:01:09;;;;;;;19.20;12.18;;;;;;;8.09;70.89;95703.66;10365217;28;20075;-49
2024/01/07 05:06:09;;;;;;;17.38;11.02;;;;;;;8.47;71.29;95766.47;10365053;28;20047;-48
2024/01/07 05:11:08;;;;;;;17.50;11.98;;;;;;;8.27;71.01;95732.50;10365152;28;21532;-50
2024/01/07 05:16:07;;;;;;;9.07;6.30;;;;;;;8.40;71.21;95744.25;10364934;28;20052;-49
2024/01/07 05:21:06;;;;;;;18.08;12.20;;;;;;;8.24;70.82;95748.94;10363662;28;20041;-48
2024/01/07 05:26:05;;;;;;;13.18;8.60;;;;;;;8.21;71.23;95766.25;10362298;28;20052;-51
2024/01/07 05:31:04;;;;;;;9.10;7.28;;;;;;;8.30;71.47;95773.81;10363451;28;20417;-51
2024/01/07 05:36:04;;;;;;;12.50;7.70;;;;;;;8.29;72.10;95766.91;10364213;28;20466;-52
2024/01/07 05:41:03;;;;;;;17.85;10.10;;;;;;;8.24;71.53;95740.34;10363556;28;20059;-49
2024/01/07 05:46:03;;;;;;;17.55;10.95;;;;;;;8.40;72.30;95759.75;10363287;28;20032;-50
2024/01/07 05:51:02;;;;;;;15.57;10.82;;;;;;;8.37;73.13;95783.09;10361239;28;20065;-49
2024/01/07 05:56:01;;;;;;;16.10;11.05;;;;;;;8.32;74.65;95787.53;10362594;28;20071;-49
2024/01/07 06:01:00;;;;;;;22.00;15.80;;;;;;;8.31;77.53;95801.31;10360205;28;20039;-48
2024/01/07 06:05:59;;;;;;;31.08;19.58;;;;;;;7.58;82.54;95729.78;10360358;28;20072;-46
2024/01/07 06:10:58;;;;;;;17.65;13.13;;;;;;;7.58;84.49;95802.06;10361660;28;20051;-47
2024/01/07 06:15:57;;;;;;;19.02;11.00;;;;;;;7.18;87.73;95787.34;10362243;28;20055;-47
2024/01/07 06:20:56;;;;;;;15.35;8.82;;;;;;;6.80;92.61;95834.47;10361636;28;20116;-48
2024/01/07 06:25:55;;;;;;;15.50;10.73;;;;;;;6.67;91.88;95810.63;10361950;28;20076;-49
2024/01/07 06:30:54;;;;;;;11.48;5.72;;;;;;;6.43;93.72;95736.31;10360278;28;20041;-48
2024/01/07 06:35:53;;;;;;;17.40;9.30;;;;;;;6.69;96.31;95764.22;10358587;28;20025;-47
2024/01/07 06:40:54;;;;;;;17.58;10.57;;;;;;;6.58;96.42;95772.13;10360151;28;20048;-47
2024/01/07 06:45:53;;;;;;;25.35;17.08;;;;;;;6.40;97.23;95739.81;10351881;28;20067;-47
2024/01/07 06:50:52;;;;;;;22.80;14.18;;;;;;;6.42;97.12;95750.06;10357882;28;20459;-47
2024/01/07 06:55:51;;;;;;;19.70;12.88;;;;;;;6.50;96.23;95789.44;10360751;28;20838;-49
2024/01/07 07:00:50;;;;;;;26.50;18.35;;;;;;;6.49;96.42;95818.66;10360794;28;20063;-48
2024/01/07 07:05:49;;;;;;;22.40;13.35;;;;;;;6.57;96.89;95765.28;10361518;28;20080;-47
2024/01/07 07:10:48;;;;;;;20.08;12.68;;;;;;;6.70;96.99;95758.16;10361084;28;20086;-47
2024/01/07 07:15:47;;;;;;;24.30;14.77;;;;;;;6.92;96.72;95774.94;10359650;28;20421;-49
2024/01/07 07:20:46;;;;;;;30.65;17.52;;;;;;;6.88;97.27;95744.09;10360229;28;20033;-47
2024/01/07 07:25:45;;;;;;;31.00;19.40;;;;;;;6.87;97.77;95748.41;10361893;28;20055;-46
2024/01/07 07:30:44;;;;;;;43.58;27.85;;;;;;;6.69;98.41;95741.84;10361281;28;20490;-47
2024/01/07 07:35:43;;;;;;;34.08;22.48;;;;;;;5.86;99.17;95603.38;10366355;28;20368;-47
2024/01/07 07:40:42;;;;;;;21.42;14.50;;;;;;;6.69;98.10;95765.06;10367214;28;20033;-47
2024/01/07 07:45:41;;;;;;;22.42;15.68;;;;;;;5.80;98.56;95642.94;10367767;28;20068;-47
2024/01/07 07:50:40;;;;;;;27.00;18.40;;;;;;;6.56;98.39;95722.31;10369010;28;20072;-47
2024/01/07 07:55:40;;;;;;;54.78;30.27;;;;;;;7.18;98.34;95809.72;10368647;28;20028;-49
2024/01/07 08:00:38;;;;;;;40.05;25.42;;;;;;;7.18;98.90;95796.81;10367015;28;20523;-49
2024/01/07 08:05:38;;;;;;;48.03;33.05;;;;;;;7.43;98.82;95798.06;10368576;28;20505;-48
2024/01/07 08:10:37;;;;;;;51.38;35.00;;;;;;;7.51;99.06;95782.44;10367763;28;20115;-49
2024/01/07 08:15:37;;;;;;;48.55;33.70;;;;;;;7.72;98.90;95799.19;10366150;28;20123;-48
2024/01/07 08:20:36;;;;;;;54.03;37.47;;;;;;;8.04;99.40;95806.25;10366336;28;20162;-48
2024/01/07 08:25:35;;;;;;;61.28;41.15;;;;;;;8.18;99.55;95795.59;10368304;28;20051;-48
2024/01/07 08:30:34;;;;;;;49.92;35.92;;;;;;;8.17;98.92;95790.47;10366179;28;20030;-47
2024/01/07 08:35:33;;;;;;;59.85;40.42;;;;;;;8.39;99.76;95777.88;10366558;28;20068;-48
2024/01/07 08:40:32;;;;;;;51.08;34.70;;;;;;;8.60;99.13;95789.44;10366664;28;20131;-49
2024/01/07 08:45:31;;;;;;;57.78;41.20;;;;;;;8.42;98.91;95737.31;10365361;28;20852;-48
2024/01/07 08:50:30;;;;;;;47.75;32.30;;;;;;;8.81;98.88;95775.97;10365721;28;20116;-48
2024/01/07 08:55:29;;;;;;;40.20;27.70;;;;;;;8.83;97.07;95766.44;10365731;28;20025;-49
2024/01/07 09:00:31;;;;;;;30.10;21.75;;;;;;;8.94;97.56;95774.75;10361478;28;20060;-50
2024/01/07 09:05:30;;;;;;;29.42;20.90;;;;;;;9.11;97.86;95776.91;10366779;28;20083;-48
2024/01/07 09:10:29;;;;;;;25.08;19.42;;;;;;;9.13;99.15;95743.22;10363092;28;20052;-48
2024/01/07 09:15:28;;;;;;;60.22;41.03;;;;;;;9.39;97.78;95762.38;10362521;28;20128;-50
2024/01/07 09:20:27;;;;;;;59.28;41.63;;;;;;;9.38;97.80;95747.75;10365470;28;20133;-50
2024/01/07 09:25:26;;;;;;;70.78;50.58;;;;;;;9.55;97.22;95748.09;10364636;28;20080;-49
2024/01/07 09:30:25;;;;;;;69.93;50.72;;;;;;;9.50;95.96;95762.91;10364495;28;20115;-49
2024/01/07 09:35:25;;;;;;;106.60;79.35;;;;;;;9.55;97.33;95737.75;10364961;28;20055;-49
2024/01/07 09:40:24;;;;;;;65.35;52.10;;;;;;;9.69;96.79;95743.34;10364137;28;20075;-48
2024/01/07 09:45:23;;;;;;;92.20;66.53;;;;;;;9.80;97.56;95726.66;10364462;28;20127;-48
2024/01/07 09:50:22;;;;;;;92.10;69.95;;;;;;;9.96;95.87;95753.78;10363463;28;20232;-48
2024/01/07 09:55:29;;;;;;;44.67;34.72;;;;;;;9.78;93.62;95761.22;10363597;28;20084;-50
2024/01/07 10:00:29;;;;;;;37.28;28.02;;;;;;;9.50;93.96;95757.75;10363010;28;20064;-48
2024/01/07 10:05:28;;;;;;;28.73;21.40;;;;;;;9.49;93.43;95738.78;10361825;28;20069;-48
2024/01/07 10:10:28;;;;;;;24.42;16.63;;;;;;;9.70;93.34;95739.00;10362761;28;20044;-47
2024/01/07 10:15:27;;;;;;;40.85;25.33;;;;;;;9.84;94.96;95739.47;10362803;28;20071;-47
2024/01/07 10:20:26;;;;;;;23.92;15.65;;;;;;;9.25;93.72;95605.69;10362062;28;20060;-48
2024/01/07 10:25:25;;;;;;;22.63;16.48;;;;;;;10.12;91.28;95738.59;10362500;28;20131;-49
2024/01/07 10:30:24;;;;;;;32.72;24.60;;;;;;;10.43;93.12;95732.44;10362579;28;20036;-47
2024/01/07 10:35:28;;;;;;;28.88;21.60;;;;;;;10.77;93.27;95727.78;10362222;28;20135;-47
2024/01/07 10:40:31;;;;;;;25.77;19.33;;;;;;;10.91;91.90;95729.94;10360532;28;20056;-47
2024/01/07 10:45:31;;;;;;;26.40;16.60;;;;;;;11.12;90.71;95733.53;10363352;28;20068;-48
2024/01/07 10:50:30;;;;;;;22.95;15.90;;;;;;;11.21;91.02;95711.59;10361232;28;20831;-47
2024/01/07 10:55:33;;;;;;;17.77;11.77;;;;;;;11.41;87.98;95718.69;10362416;28;20071;-48
2024/01/07 11:00:34;;;;;;;17.65;12.93;;;;;;;11.41;88.17;95723.88;10362135;28;20467;-50
2024/01/07 11:05:58;;;;;;;18.92;12.88;;;;;;;11.66;89.28;95721.19;10362962;28;20063;-48
2024/01/07 11:11:23;;;;;;;16.15;11.35;;;;;;;11.81;88.61;95711.97;10368953;28;20076;-49
2024/01/07 11:16:53;;;;;;;15.20;11.55;;;;;;;11.82;88.44;95679.88;10368665;28;20522;-48
2024/01/07 11:21:51;;;;;;;18.10;13.07;;;;;;;12.01;87.48;95687.78;10360260;28;20068;-49
2024/01/07 11:26:53;;;;;;;17.27;12.77;;;;;;;12.26;87.22;95692.84;10367248;28;20048;-47
2024/01/07 11:31:53;;;;;;;20.48;13.05;;;;;;;12.35;84.60;95682.09;10369734;28;20119;-47
2024/01/07 11:36:52;;;;;;;17.88;12.70;;;;;;;12.19;82.88;95645.44;10368624;28;20072;-50
2024/01/07 11:41:51;;;;;;;12.55;9.10;;;;;;;12.40;82.54;95667.16;10369387;28;20041;-47
2024/01/07 11:46:50;;;;;;;13.20;9.55;;;;;;;12.58;82.24;95688.94;10369574;28;20041;-48
2024/01/07 11:51:49;;;;;;;15.48;10.38;;;;;;;12.57;82.31;95669.03;10368344;28;20052;-49
2024/01/07 11:56:48;;;;;;;26.70;18.25;;;;;;;12.77;82.85;95662.16;10368373;28;20041;-47
2024/01/07 12:01:47;;;;;;;17.75;13.00;;;;;;;12.92;80.18;95666.66;10367690;28;20063;-48
2024/01/07 12:06:48;;;;;;;12.05;8.32;;;;;;;13.16;79.07;95690.78;10368525;28;20047;-50
2024/01/07 12:11:47;;;;;;;14.30;9.57;;;;;;;13.27;79.22;95680.72;10368140;28;20083;-48
2024/01/07 12:16:46;;;;;;;10.30;7.95;;;;;;;13.40;77.89;95690.59;10367298;28;20435;-48
2024/01/07 12:21:47;;;;;;;;;;;;;;;13.40;76.61;95698.41;10367435;28;20068;-48
2024/01/07 12:26:47;;;;;;;10.90;7.75;;;;;;;13.31;74.82;95684.06;10366359;28;19951;-48
2024/01/07 12:31:51;;;;;;;11.55;7.97;;;;;;;13.35;75.43;95693.41;10367568;28;20521;-49
2024/01/07 12:36:51;;;;;;;9.05;6.30;;;;;;;13.32;74.42;95681.38;10365842;28;20462;-48
2024/01/07 12:41:50;;;;;;;12.23;7.78;;;;;;;13.29;71.78;95693.69;10364622;28;20083;-48
2024/01/07 12:46:51;;;;;;;18.38;12.52;;;;;;;13.22;72.74;95705.31;10366691;28;20112;-48
2024/01/07 12:51:50;;;;;;;15.63;10.45;;;;;;;13.08;73.53;95672.06;10365227;28;20593;-51
2024/01/07 12:56:49;;;;;;;17.33;11.20;;;;;;;13.25;74.01;95699.94;10368512;28;20521;-48
2024/01/07 13:01:50;;;;;;;13.52;10.20;;;;;;;13.10;70.96;95689.31;10360192;28;20036;-49
2024/01/07 13:06:49;;;;;;;16.98;12.77;;;;;;;13.10;71.37;95702.31;10365370;28;20144;-48
2024/01/07 13:11:48;;;;;;;17.10;11.95;;;;;;;13.03;72.38;95711.31;10363711;28;20028;-47
2024/01/07 13:16:48;;;;;;;28.10;16.33;;;;;;;12.03;72.81;95545.59;10364542;28;20098;-48
2024/01/07 13:21:46;;;;;;;;;;;;;;;13.12;73.31;95723.94;10365285;28;20093;-48
2024/01/07 13:26:45;;;;;;;22.63;15.20;;;;;;;13.14;72.74;95723.84;10364727;28;19987;-49
2024/01/07 13:31:44;;;;;;;22.88;15.13;;;;;;;13.01;73.15;95700.13;10363807;28;20574;-49
2024/01/07 13:36:44;;;;;;;24.48;16.67;;;;;;;13.08;73.21;95714.56;10364069;28;20505;-47
2024/01/07 13:41:44;;;;;;;26.27;17.77;;;;;;;13.08;73.90;95713.72;10363756;28;20064;-49
2024/01/07 13:46:47;;;;;;;28.25;20.80;;;;;;;12.61;72.78;95647.19;10363014;28;20144;-50
2024/01/07 13:51:46;;;;;;;42.70;28.63;;;;;;;13.04;70.55;95712.16;10363645;28;20175;-48
2024/01/07 13:56:45;;;;;;;31.75;25.35;;;;;;;13.06;71.56;95718.97;10363877;28;20130;-48
2024/01/07 14:01:44;;;;;;;36.92;27.95;;;;;;;13.08;69.65;95719.75;10363288;28;20510;-48
2024/01/07 14:06:43;;;;;;;34.38;25.92;;;;;;;13.08;71.96;95719.75;10363836;28;20044;-50
2024/01/07 14:11:42;;;;;;;66.30;45.42;;;;;;;11.13;69.72;95435.91;10361737;28;20136;-48
2024/01/07 14:16:42;;;;;;;56.92;37.20;;;;;;;12.30;71.55;95658.88;10361923;28;20094;-48
2024/01/07 14:21:40;;;;;;;67.25;38.90;;;;;;;12.70;69.91;95731.81;10362523;28;20489;-50
2024/01/07 14:26:39;;;;;;;27.52;19.65;;;;;;;9.81;70.44;95319.09;10363814;28;20735;-48
2024/01/07 14:31:38;;;;;;;22.65;17.17;;;;;;;12.08;72.80;95730.81;10361705;28;20083;-47
2024/01/07 14:36:43;;;;;;;18.65;13.88;;;;;;;11.70;74.59;95714.97;10361633;28;20029;-49
2024/01/07 14:41:43;;;;;;;22.10;16.00;;;;;;;11.68;75.06;95751.38;10361832;28;20119;-50
2024/01/07 14:46:42;;;;;;;31.50;19.95;;;;;;;11.60;74.00;95750.84;10363575;28;20848;-50
2024/01/07 14:51:41;;;;;;;23.42;16.15;;;;;;;11.51;74.69;95737.34;10360421;28;20029;-48
2024/01/07 14:56:40;;;;;;;24.67;18.77;;;;;;;11.57;75.37;95755.28;10360552;28;20411;-49
2024/01/07 15:01:41;;;;;;;27.42;18.85;;;;;;;11.67;75.19;95764.47;10362365;28;20037;-49
2024/01/07 15:06:42;;;;;;;30.85;20.50;;;;;;;11.35;75.21;95721.47;10361004;28;20064;-49
2024/01/07 15:11:42;;;;;;;31.30;24.65;;;;;;;11.46;74.44;95733.16;10358977;28;20077;-49
2024/01/07 15:16:41;;;;;;;93.65;60.58;;;;;;;11.49;74.81;95781.56;10360691;28;20073;-51
2024/01/07 15:21:40;;;;;;;57.13;39.85;;;;;;;11.27;75.05;95784.09;10360419;28;20041;-48
2024/01/07 15:26:39;;;;;;;32.53;22.17;;;;;;;10.67;75.45;95782.66;10360543;28;20043;-48
2024/01/07 15:31:38;;;;;;;28.50;19.75;;;;;;;10.09;77.19;95760.28;10361204;28;20037;-49
2024/01/07 15:36:37;;;;;;;30.58;21.45;;;;;;;9.59;80.45;95767.84;10361570;28;20024;-48
2024/01/07 15:41:36;;;;;;;27.95;20.98;;;;;;;9.32;82.98;95798.81;10360971;28;20074;-49
2024/01/07 15:46:35;;;;;;;34.90;23.90;;;;;;;9.19;84.73;95817.25;10360906;28;20059;-49
2024/01/07 15:51:34;;;;;;;29.38;21.25;;;;;;;8.58;85.90;95742.09;10360878;28;20043;-48
2024/01/07 15:56:33;;;;;;;31.50;23.90;;;;;;;8.78;86.26;95770.88;10365019;28;20039;-49
2024/01/07 16:01:32;;;;;;;35.95;24.17;;;;;;;9.12;86.12;95838.09;10367141;28;20041;-48
2024/01/07 16:06:31;;;;;;;36.28;24.75;;;;;;;8.92;86.82;95830.00;10369088;28;20065;-50
2024/01/07 16:11:30;;;;;;;35.80;23.73;;;;;;;8.85;86.98;95834.47;10367297;28;20080;-48
2024/01/07 16:16:29;;;;;;;32.92;22.70;;;;;;;8.97;86.97;95858.34;10367863;28;20124;-49
2024/01/07 16:21:28;;;;;;;42.15;26.73;;;;;;;8.87;86.62;95848.22;10367186;28;20075;-48
2024/01/07 16:26:27;;;;;;;;;;;;;;;9.10;85.97;95870.09;10369420;28;20629;-51
2024/01/07 16:31:26;;;;;;;28.98;18.25;;;;;;;8.98;85.53;95854.88;10364448;28;20009;-48
2024/01/07 16:36:26;;;;;;;27.13;17.42;;;;;;;8.79;84.73;95855.34;10366305;28;20060;-48
2024/01/07 16:41:25;;;;;;;32.13;18.65;;;;;;;8.27;84.14;95795.41;10365549;28;20081;-51
2024/01/07 16:46:24;;;;;;;41.65;25.48;;;;;;;8.77;83.92;95880.38;10365491;28;20032;-49
2024/01/07 16:51:23;;;;;;;33.88;22.38;;;;;;;9.00;83.48;95894.50;10364634;28;20572;-48
2024/01/07 16:56:22;;;;;;;33.67;19.35;;;;;;;8.86;83.27;95898.28;10366226;28;20116;-50
2024/01/07 17:01:21;;;;;;;34.25;20.58;;;;;;;8.83;83.97;95924.22;10365806;28;20060;-48
2024/01/07 17:06:20;;;;;;;24.48;15.40;;;;;;;8.86;82.67;95913.78;10366155;28;20106;-49
2024/01/07 17:11:19;;;;;;;21.40;13.15;;;;;;;8.88;81.55;95909.44;10365487;28;20470;-50
2024/01/07 17:16:20;;;;;;;20.95;15.00;;;;;;;8.96;81.39;95924.75;10365413;28;20025;-50
2024/01/07 17:21:19;;;;;;;31.88;21.38;;;;;;;9.11;81.31;95941.63;10364889;28;20049;-48
2024/01/07 17:26:19;;;;;;;35.90;24.52;;;;;;;9.26;80.63;95954.22;10362160;28;20028;-48
2024/01/07 17:31:17;;;;;;;74.22;42.72;;;;;;;9.26;80.84;95953.38;10364917;28;20402;-49
2024/01/07 17:36:17;;;;;;;28.55;19.80;;;;;;;9.08;81.18;95936.53;10364924;28;20419;-49
2024/01/07 17:41:15;;;;;;;43.45;26.92;;;;;;;9.19;81.35;95944.91;10362188;28;20060;-51
2024/01/07 17:46:14;;;;;;;51.80;33.63;;;;;;;9.11;81.58;95921.81;10364505;28;20036;-50
2024/01/07 17:51:18;;;;;;;171.23;95.53;;;;;;;9.48;82.03;95958.88;10363193;28;20110;-51
2024/01/07 17:56:21;;;;;;;33.15;23.00;;;;;;;9.58;81.75;95960.34;10363559;28;20056;-49
2024/01/07 18:01:20;;;;;;;30.80;20.90;;;;;;;9.62;82.40;95981.84;10363393;28;20048;-47
2024/01/07 18:06:19;;;;;;;36.30;22.75;;;;;;;9.62;81.95;95985.25;10364051;28;20060;-49
2024/01/07 18:11:18;;;;;;;34.25;24.17;;;;;;;9.48;82.03;95995.13;10363065;28;20036;-48
2024/01/07 18:16:17;;;;;;;85.72;52.22;;;;;;;9.56;82.09;95993.22;10362332;28;20028;-48
2024/01/07 18:21:16;;;;;;;37.22;25.88;;;;;;;9.51;82.25;95997.63;10362646;28;20060;-49
2024/01/07 18:26:15;;;;;;;90.45;53.75;;;;;;;9.51;82.63;95993.31;10362456;28;20021;-48
2024/01/07 18:31:14;;;;;;;36.05;24.48;;;;;;;9.18;82.20;95940.59;10362654;28;20135;-50
2024/01/07 18:36:15;;;;;;;30.98;21.70;;;;;;;9.33;82.73;95991.19;10362550;28;20059;-50
2024/01/07 18:41:20;;;;;;;32.13;21.25;;;;;;;9.32;82.34;95992.94;10362206;28;20083;-48
2024/01/07 18:46:19;;;;;;;32.63;21.00;;;;;;;9.39;82.51;95990.19;10361408;28;20067;-50
2024/01/07 18:51:18;;;;;;;31.80;21.55;;;;;;;9.53;82.98;96006.22;10362012;28;20025;-49
2024/01/07 18:56:20;;;;;;;;;;;;;;;9.65;82.11;96037.00;10363463;28;20064;-50
2024/01/07 19:01:19;;;;;;;27.15;19.17;;;;;;;9.64;82.61;96037.03;10362246;28;19956;-48
2024/01/07 19:06:17;;;;;;;24.10;17.88;;;;;;;9.43;82.67;96013.38;10362777;28;20060;-49
2024/01/07 19:11:16;;;;;;;26.30;17.73;;;;;;;9.52;82.70;96013.13;10363371;28;20127;-50
2024/01/07 19:16:16;;;;;;;27.33;17.92;;;;;;;9.61;82.56;96040.56;10361254;28;20112;-49
2024/01/07 19:21:16;;;;;;;;;;;;;;;9.64;82.62;96037.88;10360697;28;20056;-50
2024/01/07 19:26:15;;;;;;;29.80;20.05;;;;;;;9.60;82.72;96036.25;10361519;28;20456;-49
2024/01/07 19:31:14;;;;;;;33.80;23.33;;;;;;;9.60;82.85;96033.66;10366149;28;20068;-49
2024/01/07 19:36:13;;;;;;;29.52;21.77;;;;;;;9.51;82.28;96021.81;10369406;28;20111;-49
2024/01/07 19:41:23;;;;;;;30.90;20.48;;;;;;;9.53;82.21;96045.06;10368315;28;20478;-48
2024/01/07 19:46:26;;;;;;;29.48;20.05;;;;;;;9.50;82.00;96035.63;10367489;28;20079;-51
2024/01/07 19:51:25;;;;;;;34.38;22.80;;;;;;;9.57;82.27;96052.72;10367454;28;20462;-49
2024/01/07 19:56:24;;;;;;;43.03;25.92;;;;;;;9.05;81.75;95954.75;10366567;28;20422;-49
2024/01/07 20:01:23;;;;;;;40.55;25.17;;;;;;;9.64;81.83;96048.25;10367250;28;20654;-49
2024/01/07 20:06:23;;;;;;;43.22;27.90;;;;;;;9.56;81.32;96050.19;10367354;28;20072;-50
2024/01/07 20:11:24;;;;;;;52.70;30.52;;;;;;;9.52;81.87;96036.44;10368462;28;20537;-51
2024/01/07 20:16:23;;;;;;;47.25;28.83;;;;;;;9.50;81.78;96045.13;10368386;28;20080;-49
2024/01/07 20:21:22;;;;;;;33.60;22.08;;;;;;;8.69;81.72;95936.59;10364400;28;20057;-48
2024/01/07 20:26:22;;;;;;;44.05;27.65;;;;;;;9.34;82.26;96058.44;10369267;28;20077;-50
2024/01/07 20:31:21;;;;;;;;;;;;;;;9.36;82.83;96073.94;10367387;28;20060;-50
2024/01/07 20:36:20;;;;;;;31.13;19.63;;;;;;;8.11;83.86;95891.34;10365052;28;20753;-49
2024/01/07 20:41:22;;;;;;;35.65;21.05;;;;;;;8.42;87.33;96062.13;10365908;28;20384;-50
2024/01/07 20:46:21;;;;;;;43.72;26.77;;;;;;;8.04;89.59;96012.91;10365712;28;20052;-51
2024/01/07 20:51:20;;;;;;;48.97;29.33;;;;;;;7.92;90.29;96032.94;10366511;28;20124;-49
2024/01/07 20:56:19;;;;;;;;;;;;;;;8.24;91.35;96094.34;10367063;28;20147;-49
2024/01/07 21:01:26;;;;;;;41.83;27.30;;;;;;;8.18;91.49;96109.97;10366020;28;20366;-51
2024/01/07 21:06:25;;;;;;;47.25;27.67;;;;;;;7.84;92.41;96035.66;10364744;28;20135;-48
2024/01/07 21:11:24;;;;;;;42.75;27.30;;;;;;;8.20;92.94;96103.03;10365666;28;20035;-49
2024/01/07 21:16:22;;;;;;;46.03;29.15;;;;;;;8.18;93.28;96087.56;10365803;28;20136;-48
2024/01/07 21:21:21;;;;;;;45.92;28.58;;;;;;;8.40;93.61;96113.84;10364999;28;20501;-48
2024/01/07 21:26:20;;;;;;;43.25;28.52;;;;;;;8.16;93.81;96078.16;10364724;28;20040;-48
2024/01/07 21:31:19;;;;;;;49.38;29.98;;;;;;;8.51;94.11;96124.84;10365184;28;20112;-50
2024/01/07 21:36:19;;;;;;;50.95;32.90;;;;;;;8.48;94.58;96104.22;10364203;28;20461;-50
2024/01/07 21:41:18;;;;;;;56.65;34.30;;;;;;;8.33;93.80;96089.00;10364362;28;20060;-49
2024/01/07 21:46:18;;;;;;;64.03;35.72;;;;;;;8.26;94.01;96093.44;10364080;28;20116;-49
2024/01/07 21:51:17;;;;;;;60.22;36.13;;;;;;;8.39;93.90;96119.91;10362634;28;20125;-48
2024/01/07 21:56:16;;;;;;;64.55;38.45;;;;;;;8.37;94.30;96106.16;10361355;28;20075;-49
2024/01/07 22:01:15;;;;;;;58.55;36.67;;;;;;;8.53;94.79;96140.34;10363325;28;20132;-48
2024/01/07 22:06:14;;;;;;;56.78;38.03;;;;;;;7.55;94.86;95964.75;10362916;28;20527;-49
2024/01/07 22:11:17;;;;;;;61.33;39.38;;;;;;;8.50;94.96;96120.56;10362888;28;20577;-52
2024/01/07 22:16:16;;;;;;;63.13;38.75;;;;;;;8.43;94.88;96103.44;10363579;28;20068;-49
2024/01/07 22:21:20;;;;;;;84.72;47.13;;;;;;;8.62;94.31;96142.75;10362617;28;20025;-48
2024/01/07 22:26:18;;;;;;;74.82;42.42;;;;;;;8.56;94.48;96142.00;10364656;28;20072;-50
2024/01/07 22:31:18;;;;;;;68.57;41.88;;;;;;;8.42;94.94;96125.03;10360566;28;20112;-51
2024/01/07 22:36:17;;;;;;;66.53;39.10;;;;;;;8.36;94.91;96130.28;10361459;28;20056;-49
2024/01/07 22:41:16;;;;;;;63.60;40.55;;;;;;;8.42;95.56;96148.28;10362567;28;20104;-48
2024/01/07 22:46:15;;;;;;;72.45;43.67;;;;;;;8.34;95.71;96142.41;10360978;28;20091;-48
2024/01/07 22:51:14;;;;;;;73.18;45.78;;;;;;;8.39;95.78;96144.88;10363044;28;20041;-48
2024/01/07 22:56:13;;;;;;;64.80;39.13;;;;;;;8.51;95.72;96167.94;10360692;28;20895;-49
2024/01/07 23:01:12;;;;;;;78.78;43.00;;;;;;;8.57;95.92;96166.97;10361258;28;20098;-49